sensor_id;sensor_type;location;lat;lon;timestamp;P1;durP1;ratioP1;P2;durP2;ratioP2
60239;SDS011;46102;39.012;-7.064;2023-03-25T00:01:44;9.40;;;6.63;;
60239;SDS011;46102;39.012;-7.064;2023-03-25T00:03:45;8.73;;;5.70;;
60239;SDS011;46102;39.012;-7.064;2023-03-25T00:05:45;8.73;;;6.03;;
60239;SDS011;46102;39.012;-7.064;2023-03-25T00:07:48;8.77;;;5.57;;
60239;SDS011;46102;39.012;-7.064;2023-03-25T00:09:50;6.43;;;4.45;;
60239;SDS011;46102;39.012;-7.064;2023-03-25T00:11:51;10.10;;;4.57;;
60239;SDS011;46102;39.012;-7.064;2023-03-25T00:13:52;10.15;;;5.05;;
60239;SDS011;46102;39.012;-7.064;2023-03-25T00:15:53;8.32;;;4.45;;
60239;SDS011;46102;39.012;-7.064;2023-03-25T00:17:57;5.70;;;4.53;;
60239;SDS011;46102;39.012;-7.064;2023-03-25T00:19:58;6.47;;;4.60;;
60239;SDS011;46102;39.012;-7.064;2023-03-25T00:22:01;6.33;;;4.33;;
60239;SDS011;46102;39.012;-7.064;2023-03-25T00:24:02;7.32;;;4.15;;
60239;SDS011;46102;39.012;-7.064;2023-03-25T00:26:03;7.75;;;4.15;;
60239;SDS011;46102;39.012;-7.064;2023-03-25T00:28:04;6.20;;;5.03;;
60239;SDS011;46102;39.012;-7.064;2023-03-25T00:30:05;7.22;;;3.90;;
60239;SDS011;46102;39.012;-7.064;2023-03-25T00:32:06;5.97;;;4.40;;
60239;SDS011;46102;39.012;-7.064;2023-03-25T00:34:07;7.93;;;3.90;;
60239;SDS011;46102;39.012;-7.064;2023-03-25T00:36:09;5.95;;;4.30;;
60239;SDS011;46102;39.012;-7.064;2023-03-25T00:38:12;5.00;;;4.22;;
60239;SDS011;46102;39.012;-7.064;2023-03-25T00:40:14;4.28;;;3.75;;
60239;SDS011;46102;39.012;-7.064;2023-03-25T00:42:15;8.98;;;4.40;;
60239;SDS011;46102;39.012;-7.064;2023-03-25T00:44:17;7.70;;;4.50;;
60239;SDS011;46102;39.012;-7.064;2023-03-25T00:46:18;5.53;;;3.58;;
60239;SDS011;46102;39.012;-7.064;2023-03-25T00:48:18;5.63;;;3.70;;
60239;SDS011;46102;39.012;-7.064;2023-03-25T00:50:20;6.05;;;5.22;;
60239;SDS011;46102;39.012;-7.064;2023-03-25T00:52:21;8.18;;;4.25;;
60239;SDS011;46102;39.012;-7.064;2023-03-25T00:54:22;3.72;;;3.33;;
60239;SDS011;46102;39.012;-7.064;2023-03-25T00:56:23;6.05;;;3.33;;
60239;SDS011;46102;39.012;-7.064;2023-03-25T00:58:24;4.60;;;3.58;;
60239;SDS011;46102;39.012;-7.064;2023-03-25T01:00:25;5.03;;;3.65;;
60239;SDS011;46102;39.012;-7.064;2023-03-25T01:02:26;6.38;;;3.40;;
60239;SDS011;46102;39.012;-7.064;2023-03-25T01:04:27;7.28;;;3.92;;
60239;SDS011;46102;39.012;-7.064;2023-03-25T01:06:31;4.93;;;3.22;;
60239;SDS011;46102;39.012;-7.064;2023-03-25T01:08:33;4.10;;;3.10;;
60239;SDS011;46102;39.012;-7.064;2023-03-25T01:10:35;7.53;;;3.30;;
60239;SDS011;46102;39.012;-7.064;2023-03-25T01:12:37;7.63;;;3.60;;
60239;SDS011;46102;39.012;-7.064;2023-03-25T01:14:37;7.57;;;4.15;;
60239;SDS011;46102;39.012;-7.064;2023-03-25T01:16:38;8.23;;;3.80;;
60239;SDS011;46102;39.012;-7.064;2023-03-25T01:18:40;5.07;;;3.47;;
60239;SDS011;46102;39.012;-7.064;2023-03-25T01:20:41;9.10;;;3.65;;
60239;SDS011;46102;39.012;-7.064;2023-03-25T01:22:42;10.52;;;3.28;;
60239;SDS011;46102;39.012;-7.064;2023-03-25T01:24:43;8.30;;;3.25;;
60239;SDS011;46102;39.012;-7.064;2023-03-25T01:26:44;8.25;;;3.15;;
60239;SDS011;46102;39.012;-7.064;2023-03-25T01:28:45;8.02;;;2.85;;
60239;SDS011;46102;39.012;-7.064;2023-03-25T01:30:46;11.45;;;3.05;;
60239;SDS011;46102;39.012;-7.064;2023-03-25T01:32:47;6.45;;;2.80;;
60239;SDS011;46102;39.012;-7.064;2023-03-25T01:34:47;7.10;;;2.60;;
60239;SDS011;46102;39.012;-7.064;2023-03-25T01:36:48;6.95;;;2.65;;
60239;SDS011;46102;39.012;-7.064;2023-03-25T01:38:50;3.83;;;2.38;;
60239;SDS011;46102;39.012;-7.064;2023-03-25T01:40:51;5.13;;;2.67;;
60239;SDS011;46102;39.012;-7.064;2023-03-25T01:42:53;7.30;;;2.40;;
60239;SDS011;46102;39.012;-7.064;2023-03-25T01:47:12;7.63;;;2.60;;
60239;SDS011;46102;39.012;-7.064;2023-03-25T01:49:17;6.47;;;2.30;;
60239;SDS011;46102;39.012;-7.064;2023-03-25T01:51:23;7.07;;;2.67;;
60239;SDS011;46102;39.012;-7.064;2023-03-25T01:53:29;6.97;;;2.50;;
60239;SDS011;46102;39.012;-7.064;2023-03-25T01:57:34;7.63;;;2.53;;
60239;SDS011;46102;39.012;-7.064;2023-03-25T01:59:36;8.27;;;1.98;;
60239;SDS011;46102;39.012;-7.064;2023-03-25T02:01:38;3.35;;;2.60;;
60239;SDS011;46102;39.012;-7.064;2023-03-25T02:03:40;3.35;;;1.90;;
60239;SDS011;46102;39.012;-7.064;2023-03-25T02:06:01;6.03;;;2.42;;
60239;SDS011;46102;39.012;-7.064;2023-03-25T02:08:07;9.30;;;2.63;;
60239;SDS011;46102;39.012;-7.064;2023-03-25T02:10:11;5.97;;;2.28;;
60239;SDS011;46102;39.012;-7.064;2023-03-25T02:12:12;9.18;;;2.42;;
60239;SDS011;46102;39.012;-7.064;2023-03-25T02:14:18;4.65;;;2.50;;
60239;SDS011;46102;39.012;-7.064;2023-03-25T02:16:33;6.85;;;2.50;;
60239;SDS011;46102;39.012;-7.064;2023-03-25T02:18:47;4.20;;;2.13;;
60239;SDS011;46102;39.012;-7.064;2023-03-25T02:39:02;12.68;;;3.10;;
60239;SDS011;46102;39.012;-7.064;2023-03-25T02:43:22;9.15;;;2.58;;
60239;SDS011;46102;39.012;-7.064;2023-03-25T02:45:34;6.15;;;2.50;;
60239;SDS011;46102;39.012;-7.064;2023-03-25T02:47:42;5.20;;;2.40;;
60239;SDS011;46102;39.012;-7.064;2023-03-25T02:49:57;10.82;;;3.20;;
60239;SDS011;46102;39.012;-7.064;2023-03-25T02:52:05;6.88;;;2.65;;
60239;SDS011;46102;39.012;-7.064;2023-03-25T02:54:12;8.80;;;2.30;;
60239;SDS011;46102;39.012;-7.064;2023-03-25T02:56:16;11.40;;;2.42;;
60239;SDS011;46102;39.012;-7.064;2023-03-25T02:58:21;13.80;;;3.08;;
60239;SDS011;46102;39.012;-7.064;2023-03-25T03:00:25;6.75;;;2.25;;
60239;SDS011;46102;39.012;-7.064;2023-03-25T03:02:29;5.35;;;3.03;;
60239;SDS011;46102;39.012;-7.064;2023-03-25T03:04:43;8.68;;;3.42;;
60239;SDS011;46102;39.012;-7.064;2023-03-25T03:06:50;8.73;;;2.47;;
60239;SDS011;46102;39.012;-7.064;2023-03-25T03:08:56;11.65;;;3.00;;
60239;SDS011;46102;39.012;-7.064;2023-03-25T03:23:06;5.07;;;2.65;;
60239;SDS011;46102;39.012;-7.064;2023-03-25T03:27:39;11.10;;;3.90;;
60239;SDS011;46102;39.012;-7.064;2023-03-25T03:29:49;9.57;;;3.47;;
60239;SDS011;46102;39.012;-7.064;2023-03-25T03:34:19;9.15;;;2.85;;
60239;SDS011;46102;39.012;-7.064;2023-03-25T03:36:25;8.30;;;3.35;;
60239;SDS011;46102;39.012;-7.064;2023-03-25T03:38:32;5.10;;;2.35;;
60239;SDS011;46102;39.012;-7.064;2023-03-25T03:40:39;9.48;;;2.85;;
60239;SDS011;46102;39.012;-7.064;2023-03-25T03:44:55;9.80;;;2.53;;
60239;SDS011;46102;39.012;-7.064;2023-03-25T03:47:06;6.38;;;3.88;;
60239;SDS011;46102;39.012;-7.064;2023-03-25T03:49:13;6.45;;;2.80;;
60239;SDS011;46102;39.012;-7.064;2023-03-25T03:51:18;9.65;;;2.40;;
60239;SDS011;46102;39.012;-7.064;2023-03-25T03:53:33;14.57;;;3.08;;
60239;SDS011;46102;39.012;-7.064;2023-03-25T03:55:45;6.75;;;2.58;;
60239;SDS011;46102;39.012;-7.064;2023-03-25T03:57:53;5.75;;;2.65;;
60239;SDS011;46102;39.012;-7.064;2023-03-25T04:02:15;7.97;;;4.27;;
60239;SDS011;46102;39.012;-7.064;2023-03-25T04:04:28;11.30;;;3.58;;
60239;SDS011;46102;39.012;-7.064;2023-03-25T04:06:34;7.03;;;2.55;;
60239;SDS011;46102;39.012;-7.064;2023-03-25T04:08:45;20.92;;;3.83;;
60239;SDS011;46102;39.012;-7.064;2023-03-25T04:11:00;7.60;;;2.72;;
60239;SDS011;46102;39.012;-7.064;2023-03-25T04:13:08;14.55;;;3.25;;
60239;SDS011;46102;39.012;-7.064;2023-03-25T04:15:11;11.65;;;2.88;;
60239;SDS011;46102;39.012;-7.064;2023-03-25T04:17:12;11.02;;;2.88;;
60239;SDS011;46102;39.012;-7.064;2023-03-25T04:19:13;9.70;;;2.88;;
60239;SDS011;46102;39.012;-7.064;2023-03-25T04:21:18;9.20;;;3.35;;
60239;SDS011;46102;39.012;-7.064;2023-03-25T04:23:19;12.50;;;3.20;;
60239;SDS011;46102;39.012;-7.064;2023-03-25T04:25:20;9.25;;;3.83;;
60239;SDS011;46102;39.012;-7.064;2023-03-25T04:27:24;10.88;;;3.03;;
60239;SDS011;46102;39.012;-7.064;2023-03-25T04:29:29;13.15;;;4.07;;
60239;SDS011;46102;39.012;-7.064;2023-03-25T04:31:31;14.05;;;3.58;;
60239;SDS011;46102;39.012;-7.064;2023-03-25T04:33:31;6.82;;;3.88;;
60239;SDS011;46102;39.012;-7.064;2023-03-25T04:35:32;10.52;;;4.28;;
60239;SDS011;46102;39.012;-7.064;2023-03-25T04:37:33;7.68;;;4.55;;
60239;SDS011;46102;39.012;-7.064;2023-03-25T04:39:36;9.70;;;4.40;;
60239;SDS011;46102;39.012;-7.064;2023-03-25T04:41:38;12.52;;;4.68;;
60239;SDS011;46102;39.012;-7.064;2023-03-25T04:43:39;13.50;;;4.38;;
60239;SDS011;46102;39.012;-7.064;2023-03-25T04:45:44;15.60;;;5.18;;
60239;SDS011;46102;39.012;-7.064;2023-03-25T04:47:53;11.70;;;5.13;;
60239;SDS011;46102;39.012;-7.064;2023-03-25T04:49:54;16.70;;;5.57;;
60239;SDS011;46102;39.012;-7.064;2023-03-25T04:51:55;12.40;;;5.28;;
60239;SDS011;46102;39.012;-7.064;2023-03-25T04:53:56;9.27;;;5.22;;
60239;SDS011;46102;39.012;-7.064;2023-03-25T04:55:57;15.70;;;7.53;;
60239;SDS011;46102;39.012;-7.064;2023-03-25T04:57:57;15.90;;;7.22;;
60239;SDS011;46102;39.012;-7.064;2023-03-25T04:59:58;25.48;;;8.85;;
60239;SDS011;46102;39.012;-7.064;2023-03-25T05:01:59;25.30;;;9.88;;
60239;SDS011;46102;39.012;-7.064;2023-03-25T05:04:02;22.75;;;9.27;;
60239;SDS011;46102;39.012;-7.064;2023-03-25T05:06:04;25.10;;;10.30;;
60239;SDS011;46102;39.012;-7.064;2023-03-25T05:08:07;21.15;;;9.90;;
60239;SDS011;46102;39.012;-7.064;2023-03-25T05:10:09;27.52;;;11.50;;
60239;SDS011;46102;39.012;-7.064;2023-03-25T05:12:10;19.70;;;9.32;;
60239;SDS011;46102;39.012;-7.064;2023-03-25T05:14:11;23.17;;;7.60;;
60239;SDS011;46102;39.012;-7.064;2023-03-25T05:16:13;14.13;;;6.03;;
60239;SDS011;46102;39.012;-7.064;2023-03-25T05:18:15;11.40;;;5.78;;
60239;SDS011;46102;39.012;-7.064;2023-03-25T05:20:16;13.60;;;6.47;;
60239;SDS011;46102;39.012;-7.064;2023-03-25T05:22:17;15.18;;;6.78;;
60239;SDS011;46102;39.012;-7.064;2023-03-25T05:24:18;15.70;;;6.68;;
60239;SDS011;46102;39.012;-7.064;2023-03-25T05:26:18;19.85;;;6.93;;
60239;SDS011;46102;39.012;-7.064;2023-03-25T05:28:20;16.10;;;7.75;;
60239;SDS011;46102;39.012;-7.064;2023-03-25T05:30:20;18.35;;;8.07;;
60239;SDS011;46102;39.012;-7.064;2023-03-25T05:32:21;19.52;;;9.05;;
60239;SDS011;46102;39.012;-7.064;2023-03-25T05:34:23;19.27;;;8.18;;
60239;SDS011;46102;39.012;-7.064;2023-03-25T05:36:24;28.98;;;12.05;;
60239;SDS011;46102;39.012;-7.064;2023-03-25T05:38:26;27.75;;;10.43;;
60239;SDS011;46102;39.012;-7.064;2023-03-25T05:40:26;18.58;;;9.00;;
60239;SDS011;46102;39.012;-7.064;2023-03-25T05:42:30;17.92;;;8.07;;
60239;SDS011;46102;39.012;-7.064;2023-03-25T05:44:32;11.50;;;5.63;;
60239;SDS011;46102;39.012;-7.064;2023-03-25T05:46:32;14.68;;;5.90;;
60239;SDS011;46102;39.012;-7.064;2023-03-25T05:48:33;11.60;;;4.80;;
60239;SDS011;46102;39.012;-7.064;2023-03-25T05:50:35;16.33;;;5.40;;
60239;SDS011;46102;39.012;-7.064;2023-03-25T05:52:37;14.52;;;5.35;;
60239;SDS011;46102;39.012;-7.064;2023-03-25T05:54:40;14.30;;;6.07;;
60239;SDS011;46102;39.012;-7.064;2023-03-25T05:56:42;39.83;;;5.57;;
60239;SDS011;46102;39.012;-7.064;2023-03-25T05:58:43;16.02;;;5.22;;
60239;SDS011;46102;39.012;-7.064;2023-03-25T06:00:44;19.58;;;6.13;;
60239;SDS011;46102;39.012;-7.064;2023-03-25T06:02:46;8.43;;;5.10;;
60239;SDS011;46102;39.012;-7.064;2023-03-25T06:04:48;17.95;;;6.10;;
60239;SDS011;46102;39.012;-7.064;2023-03-25T06:06:50;14.90;;;6.55;;
60239;SDS011;46102;39.012;-7.064;2023-03-25T06:08:51;18.40;;;6.65;;
60239;SDS011;46102;39.012;-7.064;2023-03-25T06:10:53;19.67;;;8.13;;
60239;SDS011;46102;39.012;-7.064;2023-03-25T06:12:57;22.13;;;9.23;;
60239;SDS011;46102;39.012;-7.064;2023-03-25T06:14:58;23.35;;;10.13;;
60239;SDS011;46102;39.012;-7.064;2023-03-25T06:16:59;24.45;;;9.98;;
60239;SDS011;46102;39.012;-7.064;2023-03-25T06:18:59;28.10;;;9.60;;
60239;SDS011;46102;39.012;-7.064;2023-03-25T06:21:00;13.07;;;7.47;;
60239;SDS011;46102;39.012;-7.064;2023-03-25T06:23:02;14.45;;;6.65;;
60239;SDS011;46102;39.012;-7.064;2023-03-25T06:25:03;15.35;;;6.53;;
60239;SDS011;46102;39.012;-7.064;2023-03-25T06:27:04;18.38;;;6.03;;
60239;SDS011;46102;39.012;-7.064;2023-03-25T06:29:08;17.92;;;6.50;;
60239;SDS011;46102;39.012;-7.064;2023-03-25T06:31:13;16.65;;;6.55;;
60239;SDS011;46102;39.012;-7.064;2023-03-25T06:33:16;13.73;;;5.43;;
60239;SDS011;46102;39.012;-7.064;2023-03-25T06:35:19;16.10;;;6.07;;
60239;SDS011;46102;39.012;-7.064;2023-03-25T06:37:20;13.63;;;6.07;;
60239;SDS011;46102;39.012;-7.064;2023-03-25T06:39:26;13.30;;;5.97;;
60239;SDS011;46102;39.012;-7.064;2023-03-25T06:41:30;19.67;;;6.65;;
60239;SDS011;46102;39.012;-7.064;2023-03-25T06:43:48;13.32;;;5.70;;
60239;SDS011;46102;39.012;-7.064;2023-03-25T06:45:54;15.40;;;6.75;;
60239;SDS011;46102;39.012;-7.064;2023-03-25T06:48:23;20.02;;;6.57;;
60239;SDS011;46102;39.012;-7.064;2023-03-25T06:50:24;21.23;;;6.60;;
60239;SDS011;46102;39.012;-7.064;2023-03-25T06:52:25;16.38;;;6.32;;
60239;SDS011;46102;39.012;-7.064;2023-03-25T06:54:25;14.60;;;6.78;;
60239;SDS011;46102;39.012;-7.064;2023-03-25T06:56:26;16.20;;;5.82;;
60239;SDS011;46102;39.012;-7.064;2023-03-25T06:58:27;15.52;;;5.68;;
60239;SDS011;46102;39.012;-7.064;2023-03-25T07:00:33;15.85;;;6.80;;
60239;SDS011;46102;39.012;-7.064;2023-03-25T07:02:34;16.85;;;5.47;;
60239;SDS011;46102;39.012;-7.064;2023-03-25T07:04:35;13.38;;;4.53;;
60239;SDS011;46102;39.012;-7.064;2023-03-25T07:06:36;10.10;;;3.95;;
60239;SDS011;46102;39.012;-7.064;2023-03-25T07:08:36;14.13;;;5.07;;
60239;SDS011;46102;39.012;-7.064;2023-03-25T07:10:37;12.32;;;4.10;;
60239;SDS011;46102;39.012;-7.064;2023-03-25T07:12:38;8.40;;;3.60;;
60239;SDS011;46102;39.012;-7.064;2023-03-25T07:14:39;13.60;;;3.38;;
60239;SDS011;46102;39.012;-7.064;2023-03-25T07:16:40;11.45;;;3.28;;
60239;SDS011;46102;39.012;-7.064;2023-03-25T07:18:41;12.38;;;3.22;;
60239;SDS011;46102;39.012;-7.064;2023-03-25T07:20:41;10.70;;;3.88;;
60239;SDS011;46102;39.012;-7.064;2023-03-25T07:22:42;18.23;;;3.78;;
60239;SDS011;46102;39.012;-7.064;2023-03-25T07:24:43;8.50;;;3.65;;
60239;SDS011;46102;39.012;-7.064;2023-03-25T07:26:44;14.15;;;3.63;;
60239;SDS011;46102;39.012;-7.064;2023-03-25T07:28:47;7.75;;;3.25;;
60239;SDS011;46102;39.012;-7.064;2023-03-25T07:30:47;11.55;;;3.10;;
60239;SDS011;46102;39.012;-7.064;2023-03-25T07:32:48;10.75;;;4.07;;
60239;SDS011;46102;39.012;-7.064;2023-03-25T07:34:49;11.82;;;3.15;;
60239;SDS011;46102;39.012;-7.064;2023-03-25T07:36:50;7.60;;;3.17;;
60239;SDS011;46102;39.012;-7.064;2023-03-25T07:38:51;12.00;;;3.42;;
60239;SDS011;46102;39.012;-7.064;2023-03-25T07:40:52;14.13;;;3.85;;
60239;SDS011;46102;39.012;-7.064;2023-03-25T07:42:53;6.80;;;2.72;;
60239;SDS011;46102;39.012;-7.064;2023-03-25T07:44:56;8.40;;;2.75;;
60239;SDS011;46102;39.012;-7.064;2023-03-25T07:46:56;8.43;;;3.30;;
60239;SDS011;46102;39.012;-7.064;2023-03-25T07:48:57;9.35;;;2.63;;
60239;SDS011;46102;39.012;-7.064;2023-03-25T07:50:58;15.18;;;2.95;;
60239;SDS011;46102;39.012;-7.064;2023-03-25T07:52:59;10.23;;;2.67;;
60239;SDS011;46102;39.012;-7.064;2023-03-25T07:54:59;15.63;;;2.70;;
60239;SDS011;46102;39.012;-7.064;2023-03-25T07:57:01;14.90;;;3.10;;
60239;SDS011;46102;39.012;-7.064;2023-03-25T07:59:02;24.63;;;3.28;;
60239;SDS011;46102;39.012;-7.064;2023-03-25T08:01:03;6.25;;;2.05;;
60239;SDS011;46102;39.012;-7.064;2023-03-25T08:03:05;6.95;;;3.25;;
60239;SDS011;46102;39.012;-7.064;2023-03-25T08:05:06;14.32;;;2.60;;
60239;SDS011;46102;39.012;-7.064;2023-03-25T08:07:07;11.60;;;2.53;;
60239;SDS011;46102;39.012;-7.064;2023-03-25T08:09:08;8.00;;;2.40;;
60239;SDS011;46102;39.012;-7.064;2023-03-25T08:11:09;6.00;;;2.08;;
60239;SDS011;46102;39.012;-7.064;2023-03-25T08:13:10;8.88;;;2.70;;
60239;SDS011;46102;39.012;-7.064;2023-03-25T08:15:11;8.73;;;3.00;;
60239;SDS011;46102;39.012;-7.064;2023-03-25T08:17:12;11.65;;;3.25;;
60239;SDS011;46102;39.012;-7.064;2023-03-25T08:19:13;6.97;;;2.53;;
60239;SDS011;46102;39.012;-7.064;2023-03-25T08:21:14;11.13;;;3.10;;
60239;SDS011;46102;39.012;-7.064;2023-03-25T08:23:16;13.75;;;3.38;;
60239;SDS011;46102;39.012;-7.064;2023-03-25T08:25:17;10.43;;;3.33;;
60239;SDS011;46102;39.012;-7.064;2023-03-25T08:27:18;11.13;;;2.90;;
60239;SDS011;46102;39.012;-7.064;2023-03-25T08:29:19;10.27;;;1.55;;
60239;SDS011;46102;39.012;-7.064;2023-03-25T08:31:20;6.25;;;2.08;;
60239;SDS011;46102;39.012;-7.064;2023-03-25T08:33:21;7.68;;;2.03;;
60239;SDS011;46102;39.012;-7.064;2023-03-25T08:35:26;5.13;;;2.70;;
60239;SDS011;46102;39.012;-7.064;2023-03-25T08:37:27;8.35;;;1.65;;
60239;SDS011;46102;39.012;-7.064;2023-03-25T08:39:29;7.20;;;1.88;;
60239;SDS011;46102;39.012;-7.064;2023-03-25T08:41:36;10.27;;;3.03;;
60239;SDS011;46102;39.012;-7.064;2023-03-25T08:45:41;4.75;;;1.48;;
60239;SDS011;46102;39.012;-7.064;2023-03-25T08:47:41;7.00;;;1.90;;
60239;SDS011;46102;39.012;-7.064;2023-03-25T08:49:43;14.50;;;1.98;;
60239;SDS011;46102;39.012;-7.064;2023-03-25T08:51:43;4.88;;;1.30;;
60239;SDS011;46102;39.012;-7.064;2023-03-25T08:53:44;12.10;;;1.70;;
60239;SDS011;46102;39.012;-7.064;2023-03-25T08:55:45;3.95;;;1.17;;
60239;SDS011;46102;39.012;-7.064;2023-03-25T08:57:46;7.75;;;2.17;;
60239;SDS011;46102;39.012;-7.064;2023-03-25T08:59:46;6.15;;;1.27;;
60239;SDS011;46102;39.012;-7.064;2023-03-25T09:01:47;6.03;;;1.55;;
60239;SDS011;46102;39.012;-7.064;2023-03-25T09:03:48;8.57;;;2.03;;
60239;SDS011;46102;39.012;-7.064;2023-03-25T09:05:49;4.05;;;1.60;;
60239;SDS011;46102;39.012;-7.064;2023-03-25T09:07:50;3.92;;;1.30;;
60239;SDS011;46102;39.012;-7.064;2023-03-25T09:09:51;8.13;;;2.13;;
60239;SDS011;46102;39.012;-7.064;2023-03-25T09:11:52;4.68;;;1.27;;
60239;SDS011;46102;39.012;-7.064;2023-03-25T09:13:53;8.30;;;1.60;;
60239;SDS011;46102;39.012;-7.064;2023-03-25T09:15:56;7.63;;;2.20;;
60239;SDS011;46102;39.012;-7.064;2023-03-25T09:17:58;6.32;;;1.58;;
60239;SDS011;46102;39.012;-7.064;2023-03-25T09:19:58;8.85;;;3.17;;
60239;SDS011;46102;39.012;-7.064;2023-03-25T09:21:59;4.10;;;1.45;;
60239;SDS011;46102;39.012;-7.064;2023-03-25T09:24:00;7.28;;;1.65;;
60239;SDS011;46102;39.012;-7.064;2023-03-25T09:26:01;4.47;;;1.58;;
60239;SDS011;46102;39.012;-7.064;2023-03-25T09:28:04;5.50;;;1.88;;
60239;SDS011;46102;39.012;-7.064;2023-03-25T09:30:06;3.42;;;1.45;;
60239;SDS011;46102;39.012;-7.064;2023-03-25T09:32:07;3.83;;;1.55;;
60239;SDS011;46102;39.012;-7.064;2023-03-25T09:34:08;2.92;;;1.75;;
60239;SDS011;46102;39.012;-7.064;2023-03-25T09:36:09;3.70;;;1.50;;
60239;SDS011;46102;39.012;-7.064;2023-03-25T09:38:10;2.78;;;2.15;;
60239;SDS011;46102;39.012;-7.064;2023-03-25T09:40:13;4.40;;;1.70;;
60239;SDS011;46102;39.012;-7.064;2023-03-25T09:44:27;3.28;;;1.30;;
60239;SDS011;46102;39.012;-7.064;2023-03-25T09:46:33;5.05;;;1.10;;
60239;SDS011;46102;39.012;-7.064;2023-03-25T09:48:43;5.68;;;1.10;;
60239;SDS011;46102;39.012;-7.064;2023-03-25T09:50:46;4.07;;;1.40;;
60239;SDS011;46102;39.012;-7.064;2023-03-25T09:55:19;2.30;;;0.95;;
60239;SDS011;46102;39.012;-7.064;2023-03-25T09:57:27;2.38;;;0.90;;
60239;SDS011;46102;39.012;-7.064;2023-03-25T09:59:39;2.92;;;1.02;;
60239;SDS011;46102;39.012;-7.064;2023-03-25T10:01:56;5.90;;;1.35;;
60239;SDS011;46102;39.012;-7.064;2023-03-25T10:09:41;4.22;;;0.77;;
60239;SDS011;46102;39.012;-7.064;2023-03-25T10:17:09;2.53;;;1.00;;
60239;SDS011;46102;39.012;-7.064;2023-03-25T10:19:37;6.45;;;1.25;;
60239;SDS011;46102;39.012;-7.064;2023-03-25T10:21:51;4.53;;;1.20;;
60239;SDS011;46102;39.012;-7.064;2023-03-25T10:24:02;2.60;;;1.02;;
60239;SDS011;46102;39.012;-7.064;2023-03-25T10:28:40;2.80;;;0.85;;
60239;SDS011;46102;39.012;-7.064;2023-03-25T10:30:50;5.32;;;1.15;;
60239;SDS011;46102;39.012;-7.064;2023-03-25T10:32:57;2.83;;;1.25;;
60239;SDS011;46102;39.012;-7.064;2023-03-25T10:35:01;4.13;;;1.75;;
60239;SDS011;46102;39.012;-7.064;2023-03-25T10:37:05;5.22;;;1.33;;
60239;SDS011;46102;39.012;-7.064;2023-03-25T10:39:13;4.22;;;1.25;;
60239;SDS011;46102;39.012;-7.064;2023-03-25T10:41:24;5.13;;;2.10;;
60239;SDS011;46102;39.012;-7.064;2023-03-25T10:43:28;10.77;;;4.60;;
60239;SDS011;46102;39.012;-7.064;2023-03-25T10:45:33;4.93;;;3.50;;
60239;SDS011;46102;39.012;-7.064;2023-03-25T10:47:35;19.65;;;10.45;;
60239;SDS011;46102;39.012;-7.064;2023-03-25T10:49:37;14.50;;;9.32;;
60239;SDS011;46102;39.012;-7.064;2023-03-25T10:51:41;5.95;;;3.95;;
60239;SDS011;46102;39.012;-7.064;2023-03-25T10:53:44;3.95;;;1.30;;
60239;SDS011;46102;39.012;-7.064;2023-03-25T10:55:50;4.47;;;1.92;;
60239;SDS011;46102;39.012;-7.064;2023-03-25T10:57:57;5.05;;;3.30;;
60239;SDS011;46102;39.012;-7.064;2023-03-25T11:00:05;3.30;;;2.03;;
60239;SDS011;46102;39.012;-7.064;2023-03-25T11:02:19;3.75;;;2.20;;
60239;SDS011;46102;39.012;-7.064;2023-03-25T11:04:28;6.05;;;1.50;;
60239;SDS011;46102;39.012;-7.064;2023-03-25T11:06:36;2.97;;;0.98;;
60239;SDS011;46102;39.012;-7.064;2023-03-25T11:10:58;4.63;;;1.00;;
60239;SDS011;46102;39.012;-7.064;2023-03-25T11:13:00;4.03;;;0.90;;
60239;SDS011;46102;39.012;-7.064;2023-03-25T11:15:03;5.82;;;1.20;;
60239;SDS011;46102;39.012;-7.064;2023-03-25T11:17:15;3.28;;;1.25;;
60239;SDS011;46102;39.012;-7.064;2023-03-25T11:19:19;2.60;;;1.35;;
60239;SDS011;46102;39.012;-7.064;2023-03-25T11:21:24;6.82;;;0.95;;
60239;SDS011;46102;39.012;-7.064;2023-03-25T11:23:30;3.25;;;0.80;;
60239;SDS011;46102;39.012;-7.064;2023-03-25T11:25:35;1.42;;;1.20;;
60239;SDS011;46102;39.012;-7.064;2023-03-25T11:27:43;2.50;;;0.93;;
60239;SDS011;46102;39.012;-7.064;2023-03-25T11:29:50;1.33;;;0.70;;
60239;SDS011;46102;39.012;-7.064;2023-03-25T11:31:57;1.58;;;0.98;;
60239;SDS011;46102;39.012;-7.064;2023-03-25T11:34:19;5.90;;;1.13;;
60239;SDS011;46102;39.012;-7.064;2023-03-25T11:36:24;2.05;;;0.60;;
60239;SDS011;46102;39.012;-7.064;2023-03-25T11:38:28;4.50;;;1.10;;
60239;SDS011;46102;39.012;-7.064;2023-03-25T11:40:31;2.92;;;1.00;;
60239;SDS011;46102;39.012;-7.064;2023-03-25T11:42:35;1.20;;;1.10;;
60239;SDS011;46102;39.012;-7.064;2023-03-25T11:44:39;2.85;;;1.10;;
60239;SDS011;46102;39.012;-7.064;2023-03-25T11:46:41;3.30;;;0.80;;
60239;SDS011;46102;39.012;-7.064;2023-03-25T11:50:47;2.42;;;0.75;;
60239;SDS011;46102;39.012;-7.064;2023-03-25T11:52:54;1.38;;;0.95;;
60239;SDS011;46102;39.012;-7.064;2023-03-25T11:54:58;2.85;;;0.65;;
60239;SDS011;46102;39.012;-7.064;2023-03-25T11:57:04;2.53;;;0.93;;
60239;SDS011;46102;39.012;-7.064;2023-03-25T11:59:26;3.67;;;0.70;;
60239;SDS011;46102;39.012;-7.064;2023-03-25T12:01:41;2.78;;;0.77;;
60239;SDS011;46102;39.012;-7.064;2023-03-25T12:03:48;2.03;;;1.25;;
60239;SDS011;46102;39.012;-7.064;2023-03-25T12:05:58;2.70;;;0.60;;
60239;SDS011;46102;39.012;-7.064;2023-03-25T12:08:10;1.27;;;0.88;;
60239;SDS011;46102;39.012;-7.064;2023-03-25T12:10:25;1.80;;;0.60;;
60239;SDS011;46102;39.012;-7.064;2023-03-25T12:15:06;1.73;;;0.73;;
60239;SDS011;46102;39.012;-7.064;2023-03-25T12:17:24;3.72;;;0.68;;
60239;SDS011;46102;39.012;-7.064;2023-03-25T12:22:06;2.83;;;0.88;;
60239;SDS011;46102;39.012;-7.064;2023-03-25T12:26:18;2.05;;;0.60;;
60239;SDS011;46102;39.012;-7.064;2023-03-25T12:35:07;0.82;;;0.50;;
60239;SDS011;46102;39.012;-7.064;2023-03-25T12:46:24;1.17;;;0.52;;
60239;SDS011;46102;39.012;-7.064;2023-03-25T12:57:40;3.08;;;1.90;;
60239;SDS011;46102;39.012;-7.064;2023-03-25T13:04:42;1.73;;;1.63;;
60239;SDS011;46102;39.012;-7.064;2023-03-25T13:06:59;1.73;;;1.63;;
60239;SDS011;46102;39.012;-7.064;2023-03-25T13:09:08;2.50;;;0.90;;
60239;SDS011;46102;39.012;-7.064;2023-03-25T13:11:24;1.00;;;0.70;;
60239;SDS011;46102;39.012;-7.064;2023-03-25T13:13:30;1.65;;;0.70;;
60239;SDS011;46102;39.012;-7.064;2023-03-25T13:15:36;1.00;;;0.90;;
60239;SDS011;46102;39.012;-7.064;2023-03-25T13:17:52;2.65;;;0.75;;
60239;SDS011;46102;39.012;-7.064;2023-03-25T13:19:58;6.32;;;2.72;;
60239;SDS011;46102;39.012;-7.064;2023-03-25T13:22:17;3.58;;;1.67;;
60239;SDS011;46102;39.012;-7.064;2023-03-25T13:24:28;1.55;;;0.60;;
60239;SDS011;46102;39.012;-7.064;2023-03-25T13:26:37;0.90;;;0.90;;
60239;SDS011;46102;39.012;-7.064;2023-03-25T13:30:46;1.30;;;1.20;;
60239;SDS011;46102;39.012;-7.064;2023-03-25T13:32:49;1.20;;;0.68;;
60239;SDS011;46102;39.012;-7.064;2023-03-25T13:34:57;2.08;;;1.40;;
60239;SDS011;46102;39.012;-7.064;2023-03-25T13:37:04;0.93;;;0.73;;
60239;SDS011;46102;39.012;-7.064;2023-03-25T13:39:23;1.25;;;0.85;;
60239;SDS011;46102;39.012;-7.064;2023-03-25T13:41:31;2.63;;;1.17;;
60239;SDS011;46102;39.012;-7.064;2023-03-25T13:43:39;2.63;;;1.00;;
60239;SDS011;46102;39.012;-7.064;2023-03-25T13:46:12;2.60;;;0.90;;
60239;SDS011;46102;39.012;-7.064;2023-03-25T13:48:21;2.65;;;1.45;;
60239;SDS011;46102;39.012;-7.064;2023-03-25T13:50:27;2.03;;;0.80;;
60239;SDS011;46102;39.012;-7.064;2023-03-25T13:52:31;1.13;;;1.10;;
60239;SDS011;46102;39.012;-7.064;2023-03-25T13:54:40;1.25;;;0.90;;
60239;SDS011;46102;39.012;-7.064;2023-03-25T13:59:17;2.70;;;1.27;;
60239;SDS011;46102;39.012;-7.064;2023-03-25T14:04:09;1.08;;;0.88;;
60239;SDS011;46102;39.012;-7.064;2023-03-25T14:06:24;3.03;;;0.90;;
60239;SDS011;46102;39.012;-7.064;2023-03-25T14:11:20;1.23;;;0.90;;
60239;SDS011;46102;39.012;-7.064;2023-03-25T14:13:26;1.45;;;0.70;;